This is the latest recevied weather packets stored in our database for station/object IQ1GE. If no packets are shown the sender has not sent any weather packets the latest 10 day(s).
| Time | Temp. | Humidity | Pressure | Rain* | Wind** | Luminosity | Snow |
|---|---|---|---|---|---|---|---|
| 1778264373 | 21.11° C | 64% | 1015.8 hPa | 0 mm | - | - | - |
| 1778264070 | 21.11° C | 64% | 1015.8 hPa | 0 mm | - | - | - |
| 1778263770 | 21.67° C | 64% | 1015.8 hPa | 0 mm | - | - | - |
| 1778263476 | 21.67° C | 64% | 1015.8 hPa | 0 mm | - | - | - |
| 1778262870 | 21.67° C | 63% | 1015.7 hPa | 0 mm | - | - | - |
| 1778262273 | 22.22° C | 63% | 1015.6 hPa | 0 mm | - | - | - |
| 1778261376 | 22.22° C | 61% | 1015.4 hPa | 0 mm | - | - | - |
| 1778260473 | 22.78° C | 60% | 1015.3 hPa | 0 mm | - | - | - |
| 1778260170 | 22.78° C | 59% | 1015.4 hPa | 0 mm | - | - | - |
| 1778259870 | 22.78° C | 59% | 1015.2 hPa | 0 mm | - | - | - |
| 1778259570 | 22.78° C | 58% | 1015.3 hPa | 0 mm | - | - | - |
| 1778258970 | 22.78° C | 57% | 1015.2 hPa | 0 mm | - | - | - |
| 1778258376 | 22.78° C | 56% | 1015.2 hPa | 0 mm | - | - | - |
| 1778257770 | 22.78° C | 56% | 1015.2 hPa | 0 mm | - | - | - |
| 1778256279 | 22.78° C | 57% | 1015.2 hPa | 0 mm | - | - | - |
| 1778255379 | 22.78° C | 59% | 1015.2 hPa | 0 mm | - | - | - |
| 1778255077 | 22.78° C | 58% | 1015.3 hPa | 0 mm | - | - | - |
| 1778254470 | 22.78° C | 59% | 1015.3 hPa | 0 mm | - | - | - |
| 1778253870 | 22.78° C | 60% | 1015.3 hPa | 0 mm | - | - | - |
| 1778253270 | 22.78° C | 61% | 1015.3 hPa | 0 mm | - | - | - |
| 1778252971 | 22.78° C | 60% | 1015.3 hPa | 0 mm | - | - | - |
| 1778252070 | 22.78° C | 59% | 1015.4 hPa | 0 mm | - | - | - |
| 1778251774 | 22.78° C | 61% | 1015.6 hPa | 0 mm | - | - | - |
| 1778246071 | 20° C | 68% | 1016.2 hPa | 0 mm | - | - | - |
| 1778245771 | 20° C | 68% | 1016.2 hPa | 0 mm | - | - | - |
* Rain latest hour (hover to see other rain measurements)
** Current wind speed in m/s (hover to see current wind gust speed)